Buckeburg Airport ETHB

Flugplatz Daten

Name: Buckeburg Airport

Ident: ETHB

Lat: 52,2784996

Long: 9,082169533

Platzhöhe: 230 ft

IataCode:

City:

Metar

2021/10/16 18:20
ETHB 161820Z AUTO 24004KT 9999 // ////// 09/04 Q1021 ///

Taf

Gewünschte Webcam nicht vorhanden? Dann fügen Sie eine hinzu. Sie wird dann so schnell wie möglich freigeschaltet
Url: Title: